Connelly Springs, North Carolina
Current Conditions -  °F | °C
As of 12:53 AM on Wednesday 28 Jan 2015 (Local Time) from KHKY Reporting Station
Clear Clear  
Wind Chill: 23°   Ceiling: Unl
Heat Index: 31°   Visibility: 10mi
Dew Point: 12°   Wind: 8mph
Humidity: 46%   Direction: 320°NW
Pressure: 30.02"   Gusts: NA
Location:  35.6588°N, 81.5286°W
Report Text: KHKY 280553Z AUTO 32007KT 10SM CLR M01/M11 A3002 RMK AO2 SLP163 T10061111 10017 21006 $
Loading
Personal Weather Stations






























Interactive Weather Map New forecast layout! Learn more

10-Day Weather Forecast

Advertisements
Track Severe Weather on mobile